| time (UTC) | temp F | wind direction | speed knots | gust knots | rain 1hr in | rain 24hr in | rain mn in | humidity % | barometer mb |
| 20260506201406 | 43 | 52 | 3.5 | 3.5 | 0.00 | 0.34 | 0.34 | 87 | 1012.5 |
| 20260506200859 | 43 | 186 | 1.7 | 3.5 | 0.00 | 0.34 | 0.34 | 89 | 1012.4 |
| 20260506200351 | 44 | 1 | 0.9 | 5.2 | 0.00 | 0.34 | 0.34 | 88 | 1012.6 |
| 20260506195843 | 44 | 280 | 0.9 | 4.3 | 0.00 | 0.34 | 0.34 | 86 | 1012.0 |
| 20260506195336 | 44 | 355 | 2.6 | 4.3 | 0.00 | 0.34 | 0.34 | 88 | 1012.2 |
| 20260506194828 | 44 | 283 | 2.6 | 3.5 | 0.00 | 0.34 | 0.34 | 87 | 1012.1 |
| 20260506194321 | 44 | 321 | 2.6 | 3.5 | 0.00 | 0.34 | 0.34 | 88 | 1012.5 |
| 20260506193813 | 44 | 280 | 0.0 | 2.6 | 0.00 | 0.34 | 0.34 | 87 | 1012.1 |
| 20260506192758 | 45 | 355 | 1.7 | 1.7 | 0.00 | 0.34 | 0.34 | 85 | 1012.0 |
| 20260506192250 | 45 | 49 | 1.7 | 3.5 | 0.00 | 0.34 | 0.34 | 84 | 1011.9 |
| 20260506191742 | 45 | 20 | 1.7 | 2.6 | 0.00 | 0.34 | 0.34 | 85 | 1012.0 |
| 20260506191235 | 44 | 5 | 1.7 | 2.6 | 0.00 | 0.34 | 0.34 | 86 | 1011.7 |
| 20260506190727 | 44 | 3 | 1.7 | 2.6 | 0.00 | 0.34 | 0.34 | 88 | 1011.7 |
| 20260506190220 | 44 | 10 | 0.9 | 1.7 | 0.00 | 0.34 | 0.34 | 89 | 1011.6 |
| 20260506185712 | 44 | 23 | 0.0 | 2.6 | 0.00 | 0.34 | 0.34 | 88 | 1011.6 |
| 20260506185205 | 44 | 22 | 1.7 | 2.6 | 0.00 | 0.34 | 0.34 | 86 | 1011.6 |
| 20260506184657 | 44 | 19 | 0.9 | 2.6 | 0.00 | 0.34 | 0.34 | 86 | 1011.3 |
| 20260506184149 | 45 | 63 | 0.9 | 1.7 | 0.00 | 0.34 | 0.34 | 86 | 1011.4 |
| 20260506183642 | 45 | 2 | 0.9 | 1.7 | 0.00 | 0.34 | 0.34 | 85 | 1011.4 |
| 20260506183134 | 45 | 7 | 1.7 | 2.6 | 0.00 | 0.34 | 0.34 | 85 | 1011.2 |
| 20260506182627 | 45 | 344 | 1.7 | 2.6 | 0.00 | 0.34 | 0.34 | 86 | 1011.1 |
| 20260506182120 | 45 | 2 | 1.7 | 2.6 | 0.00 | 0.34 | 0.34 | 85 | 1011.2 |
| 20260506181612 | 46 | 30 | 1.7 | 1.7 | 0.00 | 0.34 | 0.34 | 81 | 1011.1 |
| 20260506180557 | 45 | 75 | 1.7 | 2.6 | 0.00 | 0.34 | 0.34 | 81 | 1011.2 |
| 20260506180050 | 45 | 71 | 1.7 | 1.7 | 0.00 | 0.34 | 0.34 | 84 | 1011.0 |
| 20260506175542 | 45 | 123 | 0.0 | 1.7 | 0.00 | 0.34 | 0.34 | 84 | 1011.2 |
| 20260506175035 | 46 | 62 | 0.0 | 1.7 | 0.00 | 0.34 | 0.34 | 88 | 1011.1 |
| 20260506174527 | 46 | 13 | 0.0 | 1.7 | 0.00 | 0.34 | 0.34 | 87 | 1010.8 |
| 20260506174020 | 46 | 346 | 0.9 | 1.7 | 0.00 | 0.34 | 0.34 | 83 | 1011.1 |
| 20260506173512 | 46 | 114 | 0.0 | 1.7 | 0.00 | 0.34 | 0.34 | 86 | 1011.3 |
| 20260506173004 | 46 | 60 | 1.7 | 1.7 | 0.00 | 0.34 | 0.34 | 85 | 1010.9 |
| 20260506172456 | 46 | 77 | 1.7 | 2.6 | 0.00 | 0.34 | 0.34 | 86 | 1010.7 |
| 20260506171949 | 46 | 10 | 2.6 | 2.6 | 0.00 | 0.34 | 0.34 | 89 | 1010.8 |
| 20260506171441 | 46 | 17 | 0.9 | 1.7 | 0.00 | 0.34 | 0.34 | 88 | 1010.5 |
| 20260506170933 | 46 | 51 | 0.0 | 1.7 | 0.00 | 0.34 | 0.34 | 89 | 1010.2 |
| 20260506170426 | 46 | 223 | 0.0 | 1.7 | 0.00 | 0.34 | 0.34 | 88 | 1010.6 |
| 20260506165918 | 46 | 203 | 0.0 | 2.6 | 0.00 | 0.34 | 0.34 | 87 | 1010.8 |
| 20260506165411 | 46 | 135 | 0.0 | 2.6 | 0.00 | 0.34 | 0.34 | 87 | 1011.0 |
| 20260506164904 | 46 | 89 | 0.0 | 2.6 | 0.00 | 0.34 | 0.34 | 86 | 1010.8 |
| 20260506164356 | 46 | 235 | 1.7 | 3.5 | 0.00 | 0.34 | 0.34 | 86 | 1010.9 |
| 20260506163849 | 46 | 203 | 5.2 | 6.1 | 0.00 | 0.34 | 0.34 | 85 | 1010.8 |
| 20260506163341 | 47 | 222 | 5.2 | 8.7 | 0.00 | 0.34 | 0.34 | 85 | 1010.5 |
| 20260506162833 | 47 | 206 | 2.6 | 5.2 | 0.00 | 0.34 | 0.34 | 85 | 1011.1 |
| 20260506161817 | 47 | 230 | 10.4 | 10.4 | 0.00 | 0.34 | 0.34 | 84 | 1010.4 |
| 20260506161309 | 47 | 210 | 5.2 | 7.8 | 0.00 | 0.34 | 0.34 | 84 | 1010.9 |
| 20260506160802 | 47 | 192 | 3.5 | 8.7 | 0.00 | 0.34 | 0.34 | 82 | 1010.9 |
| 20260506160254 | 47 | 203 | 5.2 | 7.8 | 0.00 | 0.34 | 0.34 | 83 | 1010.9 |
| 20260506155746 | 47 | 232 | 1.7 | 7.8 | 0.00 | 0.34 | 0.34 | 84 | 1010.5 |
| 20260506155239 | 48 | 227 | 1.7 | 4.3 | 0.00 | 0.34 | 0.34 | 83 | 1010.6 |
| 20260506154731 | 48 | 177 | 2.6 | 8.7 | 0.00 | 0.34 | 0.34 | 82 | 1010.6 |
| 20260506154224 | 48 | 225 | 1.7 | 6.1 | 0.00 | 0.34 | 0.34 | 76 | 1010.6 |
| 20260506153716 | 49 | 220 | 1.7 | 3.5 | 0.00 | 0.34 | 0.34 | 76 | 1010.7 |
| 20260506153209 | 49 | 129 | 1.7 | 4.3 | 0.00 | 0.34 | 0.34 | 79 | 1010.6 |
| 20260506152701 | 49 | 243 | 2.6 | 7.8 | 0.00 | 0.34 | 0.34 | 75 | 1010.6 |
| 20260506152154 | 49 | 228 | 4.3 | 7.0 | 0.00 | 0.34 | 0.34 | 77 | 1010.8 |
| 20260506151140 | 48 | 28 | 1.7 | 4.3 | 0.00 | 0.34 | 0.34 | 79 | 1010.6 |
| 20260506150632 | 48 | 199 | 0.9 | 7.0 | 0.00 | 0.34 | 0.34 | 79 | 1010.8 |
| 20260506150124 | 48 | 252 | 2.6 | 9.6 | 0.00 | 0.34 | 0.34 | 79 | 1010.8 |
| 20260506145617 | 48 | 227 | 2.6 | 5.2 | 0.00 | 0.34 | 0.34 | 80 | 1010.9 |
| 20260506145109 | 48 | 231 | 3.5 | 6.1 | 0.00 | 0.34 | 0.34 | 80 | 1010.7 |
| 20260506144602 | 47 | 198 | 4.3 | 10.4 | 0.00 | 0.34 | 0.34 | 80 | 1010.5 |
| 20260506144054 | 47 | 200 | 0.0 | 5.2 | 0.00 | 0.34 | 0.34 | 82 | 1010.9 |
| 20260506143546 | 47 | 222 | 3.5 | 7.8 | 0.00 | 0.34 | 0.34 | 81 | 1010.5 |
| 20260506143038 | 47 | 211 | 0.9 | 6.1 | 0.00 | 0.34 | 0.34 | 82 | 1010.8 |
| 20260506142530 | 47 | 181 | 6.1 | 9.6 | 0.00 | 0.34 | 0.34 | 81 | 1010.8 |
| 20260506141516 | 46 | 210 | 4.3 | 5.2 | 0.00 | 0.34 | 0.34 | 83 | 1010.6 |
| 20260506141008 | 46 | 223 | 2.6 | 5.2 | 0.00 | 0.34 | 0.34 | 84 | 1011.0 |
| 20260506140500 | 46 | 218 | 3.5 | 7.8 | 0.00 | 0.34 | 0.34 | 83 | 1010.7 |
| 20260506135446 | 46 | 147 | 1.7 | 6.1 | 0.00 | 0.34 | 0.34 | 86 | 1010.3 |
| 20260506134432 | 45 | 196 | 0.9 | 3.5 | 0.00 | 0.34 | 0.34 | 85 | 1010.7 |
| 20260506133924 | 45 | 125 | 1.7 | 1.7 | 0.00 | 0.34 | 0.34 | 86 | 1010.3 |
| 20260506133416 | 45 | 93 | 2.6 | 2.6 | 0.00 | 0.34 | 0.34 | 85 | 1010.7 |
| 20260506132909 | 45 | 301 | 0.0 | 1.7 | 0.00 | 0.34 | 0.34 | 85 | 1010.5 |
| 20260506132401 | 45 | 205 | 3.5 | 4.3 | 0.00 | 0.34 | 0.34 | 84 | 1011.2 |
| 20260506131853 | 45 | 254 | 3.5 | 6.1 | 0.00 | 0.34 | 0.34 | 82 | 1010.8 |
| 20260506131345 | 45 | 205 | 2.6 | 4.3 | 0.00 | 0.34 | 0.34 | 84 | 1010.8 |
| 20260506130838 | 45 | 169 | 4.3 | 4.3 | 0.00 | 0.34 | 0.34 | 87 | 1010.5 |
| 20260506130330 | 45 | 333 | 3.5 | 7.8 | 0.00 | 0.34 | 0.34 | 86 | 1010.7 |
| 20260506125822 | 45 | 193 | 2.6 | 5.2 | 0.00 | 0.34 | 0.34 | 85 | 1010.7 |
| 20260506125315 | 45 | 116 | 0.9 | 2.6 | 0.00 | 0.34 | 0.34 | 86 | 1010.7 |
| 20260506124807 | 45 | 256 | 2.6 | 3.5 | 0.00 | 0.34 | 0.34 | 85 | 1010.4 |
| 20260506124300 | 45 | 150 | 0.9 | 3.5 | 0.00 | 0.34 | 0.34 | 85 | 1010.3 |
| 20260506123752 | 45 | 343 | 1.7 | 4.3 | 0.00 | 0.34 | 0.34 | 87 | 1010.5 |
| 20260506123244 | 45 | 137 | 0.9 | 1.7 | 0.00 | 0.34 | 0.34 | 88 | 1010.1 |
| 20260506122737 | 45 | 121 | 0.0 | 2.6 | 0.00 | 0.34 | 0.34 | 87 | 1010.1 |
| 20260506122229 | 45 | 217 | 3.5 | 5.2 | 0.00 | 0.34 | 0.34 | 88 | 1009.9 |
| 20260506121722 | 44 | 359 | 0.9 | 8.7 | 0.00 | 0.34 | 0.34 | 88 | 1010.1 |
| 20260506121214 | 44 | 256 | 1.7 | 7.0 | 0.00 | 0.34 | 0.34 | 87 | 1010.4 |
| 20260506120200 | 44 | 10 | 0.9 | 5.2 | 0.01 | 0.34 | 0.34 | 87 | 1010.1 |
| 20260506115652 | 44 | 341 | 4.3 | 4.3 | 0.02 | 0.34 | 0.34 | 89 | 1010.2 |
| 20260506115144 | 44 | 45 | 0.0 | 5.2 | 0.02 | 0.34 | 0.34 | 88 | 1009.9 |
| 20260506114636 | 44 | 273 | 2.6 | 4.3 | 0.02 | 0.34 | 0.34 | 88 | 1010.2 |
| 20260506114129 | 44 | 28 | 2.6 | 4.3 | 0.02 | 0.34 | 0.34 | 90 | 1009.9 |
| 20260506113621 | 44 | 183 | 0.9 | 2.6 | 0.02 | 0.34 | 0.34 | 90 | 1010.6 |
| 20260506113113 | 44 | 105 | 1.7 | 4.3 | 0.03 | 0.34 | 0.34 | 90 | 1010.0 |
| 20260506112605 | 44 | 338 | 2.6 | 3.5 | 0.04 | 0.34 | 0.34 | 89 | 1010.1 |
| 20260506112058 | 44 | 329 | 0.0 | 3.5 | 0.05 | 0.34 | 0.34 | 91 | 1010.1 |
| 20260506111551 | 43 | 224 | 1.7 | 5.2 | 0.06 | 0.34 | 0.34 | 90 | 1009.9 |
| 20260506111043 | 43 | 114 | 1.7 | 3.5 | 0.07 | 0.34 | 0.34 | 89 | 1010.0 |
| 20260506110535 | 43 | 96 | 2.6 | 4.3 | 0.07 | 0.33 | 0.33 | 89 | 1010.3 |
| 20260506110027 | 43 | 346 | 1.7 | 5.2 | 0.07 | 0.33 | 0.33 | 90 | 1010.3 |
| 20260506105520 | 43 | 44 | 2.6 | 5.2 | 0.08 | 0.32 | 0.32 | 89 | 1010.2 |
| 20260506105012 | 43 | 188 | 0.0 | 3.5 | 0.08 | 0.32 | 0.32 | 89 | 1010.4 |
| 20260506104505 | 43 | 246 | 0.0 | 5.2 | 0.08 | 0.32 | 0.32 | 90 | 1010.2 |
| 20260506103957 | 43 | 290 | 0.0 | 4.3 | 0.09 | 0.32 | 0.32 | 89 | 1010.0 |
| 20260506103450 | 42 | 197 | 4.3 | 7.8 | 0.09 | 0.31 | 0.31 | 90 | 1009.8 |
| 20260506102942 | 42 | 187 | 0.9 | 6.1 | 0.09 | 0.30 | 0.30 | 90 | 1010.2 |
| 20260506101927 | 42 | 251 | 4.3 | 8.7 | 0.09 | 0.28 | 0.28 | 90 | 1010.2 |
| 20260506101420 | 42 | 151 | 1.7 | 4.3 | 0.10 | 0.28 | 0.28 | 90 | 1010.2 |
| 20260506100913 | 43 | 22 | 2.6 | 4.3 | 0.11 | 0.27 | 0.27 | 91 | 1010.0 |
| 20260506100405 | 43 | 348 | 2.6 | 5.2 | 0.11 | 0.26 | 0.26 | 91 | 1009.9 |
| 20260506095857 | 43 | 4 | 2.6 | 4.3 | 0.11 | 0.26 | 0.26 | 90 | 1010.3 |
| 20260506095349 | 43 | 243 | 1.7 | 2.6 | 0.12 | 0.25 | 0.25 | 90 | 1009.8 |
| 20260506094842 | 43 | 32 | 1.7 | 4.3 | 0.12 | 0.24 | 0.24 | 91 | 1009.9 |
| 20260506094334 | 44 | 107 | 0.9 | 3.5 | 0.12 | 0.24 | 0.24 | 92 | 1009.7 |
| 20260506093826 | 43 | 336 | 1.7 | 2.6 | 0.13 | 0.23 | 0.23 | 92 | 1009.9 |
| 20260506093319 | 44 | 0 | 0.0 | 1.7 | 0.13 | 0.22 | 0.22 | 92 | 1009.8 |
| 20260506091248 | 44 | 25 | 2.6 | 2.6 | 0.12 | 0.17 | 0.17 | 92 | 1009.2 |
| 20260506090740 | 45 | 228 | 1.7 | 4.3 | 0.11 | 0.16 | 0.16 | 89 | 1009.4 |
| 20260506090233 | 45 | 203 | 0.9 | 2.6 | 0.10 | 0.15 | 0.15 | 90 | 1009.1 |
| 20260506085725 | 45 | 65 | 1.7 | 3.5 | 0.10 | 0.14 | 0.14 | 91 | 1008.9 |
| 20260506085218 | 45 | 226 | 0.9 | 5.2 | 0.09 | 0.13 | 0.13 | 91 | 1009.0 |
| 20260506084710 | 46 | 25 | 0.9 | 2.6 | 0.09 | 0.12 | 0.12 | 93 | 1008.8 |
| 20260506083655 | 46 | 130 | 0.0 | 5.2 | 0.07 | 0.10 | 0.10 | 92 | 1009.0 |
| 20260506083147 | 46 | 217 | 0.9 | 4.3 | 0.07 | 0.09 | 0.09 | 94 | 1008.8 |
| 20260506081626 | 46 | 195 | 0.0 | 0.9 | 0.05 | 0.06 | 0.06 | 94 | 1008.1 |
| 20260506081119 | 46 | 249 | 0.0 | 0.9 | 0.05 | 0.06 | 0.06 | 94 | 1008.2 |
| 20260506080611 | 46 | 216 | 0.0 | 1.7 | 0.04 | 0.05 | 0.05 | 94 | 1008.4 |
| 20260506080104 | 46 | 146 | 1.7 | 1.7 | 0.05 | 0.05 | 0.05 | 95 | 1008.4 |
| 20260506073017 | 46 | 119 | 0.0 | 1.7 | 0.02 | 0.02 | 0.02 | 94 | 1008.0 |
| 20260506072510 | 46 | 158 | 1.7 | 1.7 | 0.02 | 0.02 | 0.02 | 94 | 1008.2 |
| 20260506072002 | 46 | 89 | 0.0 | 0.9 | 0.02 | 0.02 | 0.02 | 94 | 1008.3 |
| 20260506071454 | 46 | 197 | 1.7 | 1.7 | 0.01 | 0.01 | 0.01 | 94 | 1007.6 |
| 20260506070946 | 46 | 209 | 0.0 | 2.6 | 0.01 | 0.01 | 0.01 | 94 | 1008.4 |
| 20260506070439 | 46 | 172 | 0.9 | 2.6 | 0.01 | 0.01 | 0.01 | 94 | 1007.8 |
| 20260506062338 | 46 | 84 | 0.9 | 1.7 | 0.00 | 0.00 | 0.00 | 91 | 1008.1 |
| 20260506061831 | 46 | 124 | 1.7 | 1.7 | 0.00 | 0.00 | 0.00 | 91 | 1008.0 |
| 20260506061323 | 46 | 116 | 0.9 | 1.7 | 0.00 | 0.00 | 0.00 | 90 | 1007.8 |
| 20260506060816 | 46 | 130 | 0.0 | 1.7 | 0.00 | 0.00 | 0.00 | 90 | 1008.0 |
| 20260506060309 | 46 | 205 | 0.0 | 0.9 | 0.00 | 0.00 | 0.00 | 91 | 1007.9 |
| 20260506051154 | 45 | 47 | 1.7 | 1.7 | 0.00 | 0.00 | 0.00 | 90 | 1007.9 |
| 20260506050646 | 45 | 74 | 0.9 | 1.7 | 0.00 | 0.00 | 0.00 | 91 | 1008.2 |
| 20260506050138 | 45 | 9 | 0.9 | 1.7 | 0.00 | 0.00 | 0.00 | 91 | 1007.9 |
| 20260506045123 | 46 | 67 | 2.6 | 2.6 | 0.00 | 0.00 | 0.00 | 88 | 1007.9 |
| 20260506044616 | 45 | 62 | 1.7 | 2.6 | 0.00 | 0.00 | 0.00 | 88 | 1008.1 |
| 20260506043054 | 45 | 123 | 1.7 | 1.7 | 0.00 | 0.00 | 0.00 | 89 | 1008.2 |
| 20260506042547 | 45 | 315 | 0.0 | 0.0 | 0.00 | 0.00 | 0.00 | 88 | 1008.0 |
| 20260506042040 | 45 | 310 | 0.0 | 1.7 | 0.00 | 0.00 | 0.00 | 87 | 1008.3 |
| 20260506041532 | 45 | 103 | 0.0 | 0.9 | 0.00 | 0.00 | 0.00 | 88 | 1007.9 |
| 20260506041024 | 45 | 124 | 0.0 | 1.7 | 0.00 | 0.00 | 0.00 | 88 | 1008.1 |
| 20260506040517 | 45 | 319 | 0.0 | 0.9 | 0.00 | 0.00 | 0.00 | 88 | 1008.1 |
| 20260506040010 | 45 | 348 | 0.9 | 0.9 | 0.00 | 0.00 | 0.00 | 87 | 1008.2 |
| 20260506035503 | 45 | 336 | 0.0 | 1.7 | 0.00 | 0.00 | 0.00 | 88 | 1008.2 |
| 20260506034955 | 45 | 342 | 0.0 | 0.9 | 0.00 | 0.00 | 0.00 | 88 | 1008.1 |
| 20260506034448 | 45 | 129 | 0.0 | 1.7 | 0.00 | 0.00 | 0.00 | 89 | 1008.4 |
| 20260506033941 | 45 | 19 | 1.7 | 2.6 | 0.00 | 0.00 | 0.00 | 88 | 1008.3 |
| 20260506033433 | 44 | 309 | 0.0 | 0.9 | 0.00 | 0.00 | 0.00 | 89 | 1008.5 |
| 20260506032926 | 44 | 348 | 0.9 | 0.9 | 0.00 | 0.00 | 0.00 | 90 | 1008.3 |
| 20260506032419 | 44 | 347 | 1.7 | 1.7 | 0.00 | 0.00 | 0.00 | 90 | 1008.4 |
| 20260506031912 | 44 | 340 | 1.7 | 2.6 | 0.00 | 0.00 | 0.00 | 90 | 1008.3 |
| 20260506031404 | 45 | 345 | 1.7 | 1.7 | 0.00 | 0.00 | 0.00 | 90 | 1007.8 |
| 20260506030857 | 45 | 0 | 0.0 | 1.7 | 0.00 | 0.00 | 0.00 | 88 | 1008.9 |
| 20260506030350 | 45 | 341 | 1.7 | 2.6 | 0.00 | 0.00 | 0.00 | 89 | 1008.7 |
| 20260506025842 | 45 | 327 | 2.6 | 2.6 | 0.00 | 0.00 | 0.00 | 89 | 1008.6 |
| 20260506025335 | 45 | 334 | 1.7 | 2.6 | 0.00 | 0.00 | 0.00 | 89 | 1008.8 |
| 20260506024828 | 45 | 343 | 1.7 | 1.7 | 0.00 | 0.00 | 0.00 | 88 | 1008.9 |
| 20260506024321 | 45 | 336 | 1.7 | 1.7 | 0.00 | 0.00 | 0.00 | 89 | 1008.8 |
| 20260506023814 | 44 | 344 | 1.7 | 1.7 | 0.00 | 0.00 | 0.00 | 90 | 1008.6 |
| 20260506023306 | 45 | 337 | 2.6 | 2.6 | 0.00 | 0.00 | 0.00 | 89 | 1008.9 |
| 20260506022759 | 44 | 339 | 1.7 | 1.7 | 0.00 | 0.00 | 0.00 | 90 | 1008.9 |
| 20260506022251 | 44 | 339 | 1.7 | 2.6 | 0.00 | 0.00 | 0.00 | 91 | 1008.6 |
| 20260506021744 | 45 | 338 | 1.7 | 2.6 | 0.00 | 0.00 | 0.00 | 91 | 1009.0 |
| 20260506021236 | 45 | 331 | 1.7 | 2.6 | 0.00 | 0.00 | 0.00 | 92 | 1008.8 |
| 20260506020728 | 45 | 329 | 1.7 | 2.6 | 0.00 | 0.00 | 0.00 | 92 | 1008.5 |
| 20260506020221 | 45 | 332 | 1.7 | 2.6 | 0.00 | 0.00 | 0.00 | 92 | 1009.5 |
| 20260506015713 | 45 | 331 | 1.7 | 1.7 | 0.00 | 0.00 | 0.00 | 92 | 1008.9 |
| 20260506015205 | 45 | 336 | 1.7 | 1.7 | 0.00 | 0.00 | 0.00 | 92 | 1009.1 |
| 20260506014658 | 45 | 347 | 1.7 | 1.7 | 0.00 | 0.00 | 0.00 | 92 | 1008.9 |
| 20260506014150 | 45 | 2 | 0.0 | 1.7 | 0.00 | 0.00 | 0.00 | 92 | 1009.3 |
| 20260506013643 | 45 | 339 | 1.7 | 1.7 | 0.00 | 0.00 | 0.00 | 91 | 1009.2 |
| 20260506013135 | 45 | 336 | 1.7 | 2.6 | 0.00 | 0.00 | 0.00 | 91 | 1009.3 |
| 20260506012628 | 45 | 344 | 1.7 | 1.7 | 0.00 | 0.00 | 0.00 | 91 | 1009.5 |
| 20260506012120 | 46 | 340 | 1.7 | 1.7 | 0.00 | 0.00 | 0.00 | 91 | 1009.2 |
| 20260506011612 | 46 | 350 | 0.9 | 1.7 | 0.00 | 0.00 | 0.00 | 90 | 1009.8 |
| 20260506011105 | 46 | 8 | 1.7 | 1.7 | 0.00 | 0.00 | 0.00 | 91 | 1009.7 |
| 20260506010557 | 46 | 15 | 1.7 | 1.7 | 0.00 | 0.00 | 0.00 | 90 | 1009.8 |
| 20260506010050 | 46 | 207 | 0.0 | 1.7 | 0.00 | 0.00 | 0.00 | 91 | 1009.7 |
| 20260506005543 | 46 | 340 | 0.0 | 0.9 | 0.00 | 0.00 | 0.00 | 91 | 1009.8 |
| 20260506005035 | 46 | 352 | 0.0 | 0.9 | 0.00 | 0.00 | 0.00 | 91 | 1009.4 |
| 20260506004527 | 46 | 28 | 0.9 | 2.6 | 0.00 | 0.00 | 0.00 | 91 | 1009.9 |
| 20260506004020 | 46 | 6 | 0.0 | 1.7 | 0.00 | 0.00 | 0.00 | 93 | 1009.8 |
| 20260506003512 | 46 | 345 | 1.7 | 1.7 | 0.00 | 0.00 | 0.00 | 93 | 1009.5 |
| 20260506003005 | 46 | 32 | 0.0 | 1.7 | 0.00 | 0.00 | 0.00 | 93 | 1009.9 |
| 20260506002457 | 46 | 34 | 1.7 | 1.7 | 0.00 | 0.00 | 0.00 | 92 | 1010.3 |
| 20260506001949 | 46 | 85 | 1.7 | 2.6 | 0.00 | 0.00 | 0.00 | 91 | 1010.3 |
| 20260506001442 | 47 | 30 | 1.7 | 1.7 | 0.00 | 0.00 | 0.00 | 91 | 1010.4 |
| 20260506000934 | 47 | 78 | 1.7 | 2.6 | 0.00 | 0.00 | 0.00 | 90 | 1010.3 |
| 20260506000427 | 46 | 44 | 1.7 | 1.7 | 0.00 | 0.00 | 0.00 | 90 | 1010.5 |
| 20260505235920 | 46 | 50 | 0.0 | 1.7 | 0.00 | 0.00 | 0.00 | 91 | 1010.4 |
| 20260505235412 | 47 | 315 | 0.9 | 1.7 | 0.00 | 0.00 | 0.00 | 91 | 1010.7 |
| 20260505234905 | 47 | 175 | 0.9 | 1.7 | 0.00 | 0.00 | 0.00 | 90 | 1010.8 |
| 20260505234358 | 47 | 142 | 0.0 | 1.7 | 0.00 | 0.00 | 0.00 | 90 | 1010.6 |
| 20260505233851 | 47 | 44 | 0.0 | 0.9 | 0.00 | 0.00 | 0.00 | 90 | 1010.7 |
| 20260505233344 | 46 | 230 | 0.9 | 1.7 | 0.00 | 0.00 | 0.00 | 90 | 1010.8 |
| 20260505232836 | 46 | 348 | 1.7 | 2.6 | 0.00 | 0.00 | 0.00 | 92 | 1010.4 |
| 20260505232328 | 46 | 44 | 0.0 | 1.7 | 0.00 | 0.00 | 0.00 | 92 | 1010.8 |
| 20260505231821 | 47 | 93 | 1.7 | 2.6 | 0.00 | 0.00 | 0.00 | 89 | 1010.8 |
| 20260505231314 | 47 | 103 | 0.9 | 2.6 | 0.00 | 0.00 | 0.00 | 88 | 1010.7 |
| 20260505230806 | 47 | 33 | 0.9 | 2.6 | 0.00 | 0.00 | 0.00 | 88 | 1011.2 |
| 20260505230258 | 47 | 52 | 2.6 | 2.6 | 0.00 | 0.00 | 0.00 | 87 | 1010.7 |
| 20260505225751 | 47 | 48 | 1.7 | 2.6 | 0.00 | 0.00 | 0.00 | 89 | 1010.9 |
| 20260505225244 | 47 | 40 | 0.0 | 2.6 | 0.00 | 0.00 | 0.00 | 89 | 1011.0 |
| 20260505224736 | 47 | 69 | 1.7 | 2.6 | 0.00 | 0.00 | 0.00 | 90 | 1011.3 |
| 20260505224229 | 47 | 47 | 0.0 | 3.5 | 0.00 | 0.00 | 0.00 | 90 | 1011.1 |
| 20260505223722 | 47 | 26 | 2.6 | 2.6 | 0.00 | 0.00 | 0.00 | 90 | 1010.7 |
| 20260505223214 | 47 | 342 | 1.7 | 2.6 | 0.00 | 0.00 | 0.00 | 90 | 1010.8 |
| 20260505222707 | 47 | 344 | 0.0 | 6.1 | 0.00 | 0.00 | 0.00 | 90 | 1011.1 |
| 20260505222200 | 48 | 173 | 1.7 | 7.0 | 0.00 | 0.00 | 0.00 | 89 | 1011.5 |
| 20260505221652 | 48 | 302 | 2.6 | 7.8 | 0.00 | 0.00 | 0.00 | 87 | 1011.3 |
| 20260505221144 | 48 | 235 | 5.2 | 8.7 | 0.00 | 0.00 | 0.00 | 85 | 1011.3 |
| 20260505220637 | 48 | 218 | 5.2 | 13.9 | 0.00 | 0.00 | 0.00 | 83 | 1011.4 |
| 20260505220129 | 48 | 224 | 0.9 | 5.2 | 0.00 | 0.00 | 0.00 | 85 | 1011.6 |
| 20260505215622 | 47 | 325 | 1.7 | 2.6 | 0.00 | 0.45 | 0.45 | 85 | 1011.4 |
| 20260505215115 | 48 | 130 | 1.7 | 3.5 | 0.00 | 0.45 | 0.45 | 84 | 1011.2 |
| 20260505214607 | 48 | 60 | 0.0 | 2.6 | 0.00 | 0.45 | 0.45 | 82 | 1011.5 |
| 20260505214100 | 48 | 1 | 4.3 | 4.3 | 0.00 | 0.45 | 0.45 | 82 | 1011.5 |
| 20260505213552 | 48 | 44 | 0.9 | 1.7 | 0.00 | 0.45 | 0.45 | 81 | 1011.2 |
| 20260505213045 | 48 | 12 | 1.7 | 1.7 | 0.00 | 0.45 | 0.45 | 84 | 1011.3 |
| 20260505212538 | 48 | 22 | 0.9 | 3.5 | 0.00 | 0.45 | 0.45 | 85 | 1011.3 |
| 20260505212030 | 48 | 201 | 1.7 | 2.6 | 0.00 | 0.45 | 0.45 | 82 | 1011.4 |
| 20260505211522 | 47 | 94 | 0.9 | 1.7 | 0.00 | 0.45 | 0.45 | 84 | 1010.9 |
| 20260505211015 | 47 | 293 | 0.9 | 1.7 | 0.00 | 0.45 | 0.45 | 85 | 1011.5 |
| 20260505210507 | 47 | 64 | 2.6 | 2.6 | 0.00 | 0.45 | 0.45 | 86 | 1011.2 |
| 20260505210000 | 47 | 327 | 1.7 | 2.6 | 0.00 | 0.45 | 0.45 | 88 | 1011.5 |
| 20260505205452 | 47 | 9 | 4.3 | 4.3 | 0.00 | 0.45 | 0.45 | 86 | 1011.4 |
| 20260505204945 | 47 | 2 | 2.6 | 3.5 | 0.00 | 0.45 | 0.45 | 88 | 1011.5 |
| 20260505204437 | 47 | 344 | 1.7 | 1.7 | 0.00 | 0.45 | 0.45 | 90 | 1011.4 |
| 20260505203930 | 47 | 0 | 1.7 | 2.6 | 0.00 | 0.45 | 0.45 | 88 | 1011.5 |
| 20260505203423 | 47 | 57 | 0.0 | 1.7 | 0.00 | 0.45 | 0.45 | 89 | 1011.8 |
| 20260505202916 | 47 | 351 | 1.7 | 1.7 | 0.00 | 0.45 | 0.45 | 90 | 1011.6 |
| 20260505202408 | 47 | 116 | 1.7 | 2.6 | 0.00 | 0.45 | 0.45 | 90 | 1011.0 |
| 20260505201900 | 47 | 320 | 0.9 | 1.7 | 0.00 | 0.45 | 0.45 | 91 | 1011.9 |